Time;durP1;ratioP1;P1;durP2;ratioP2;P2;SDS_P1;SDS_P2;PMS_P1;PMS_P2;Temp;Humidity;BMP_temperature;BMP_pressure;BME280_temperature;BME280_humidity;BME280_pressure;Samples;Min_cycle;Max_cycle;Signal;HPM_P1;HPM_P2
2021/09/07 00:05:33;;;;;;;;;;;;;;;;;;;;;
2021/09/07 00:44:47;;;;;;;;;;;;;;;;;;;;;
2021/09/07 02:43:54;;;;;;;;;;;;;;;;;;;;;
2021/09/07 02:51:53;;;;;;;;;;;;;;;;;;;;;
2021/09/07 03:18:20;;;;;;;;;;;;;;;;;;;;;
2021/09/07 03:26:15;;;;;;;;;;;;;;;;;;;;;
2021/09/07 03:30:27;;;;;;;;;;;;;;;;;;;;;
2021/09/07 04:46:36;;;;;;;;;;;;;;;;;;;;;
2021/09/07 04:58:12;;;;;;;26.52;20.08;;;10.80;99.90;;;;;;6018282;23;20014;-89
2021/09/07 05:00:59;;;;;;;26.73;19.02;;;10.80;99.90;;;;;;6064844;23;20106;-90
2021/09/07 05:03:47;;;;;;;26.10;18.25;;;10.80;99.90;;;;;;6190992;23;20036;-92
2021/09/07 05:06:35;;;;;;;32.75;22.90;;;10.70;99.90;;;;;;6211791;23;20024;-90
2021/09/07 05:09:22;;;;;;;29.20;20.42;;;10.80;99.90;;;;;;6213237;23;20036;-90
2021/09/07 05:12:10;;;;;;;26.60;19.48;;;10.80;99.90;;;;;;6194746;23;20060;-89
2021/09/07 05:15:00;;;;;;;26.88;19.05;;;10.90;99.90;;;;;;6193602;23;20459;-89
2021/09/07 05:17:50;;;;;;;30.45;20.70;;;10.90;99.90;;;;;;6278467;22;20019;-89
2021/09/07 05:20:37;;;;;;;29.50;19.40;;;11.00;99.90;;;;;;6256762;22;20027;-88
2021/09/07 05:23:27;;;;;;;24.67;18.20;;;11.00;99.90;;;;;;6254440;22;20028;-88
2021/09/07 05:26:15;;;;;;;27.23;19.08;;;11.10;99.90;;;;;;6278986;22;20387;-89
2021/09/07 05:29:05;;;;;;;23.55;17.83;;;11.20;99.90;;;;;;6277843;22;20403;-89
2021/09/07 05:31:54;;;;;;;24.52;15.82;;;11.30;99.90;;;;;;6275188;22;20081;-88
2021/09/07 05:34:44;;;;;;;21.17;15.35;;;11.40;99.90;;;;;;6254359;22;20070;-92
2021/09/07 05:37:37;;;;;;;25.00;14.82;;;11.50;99.90;;;;;;6231998;22;20058;-91
2021/09/07 05:40:25;;;;;;;21.75;15.63;;;11.50;99.90;;;;;;6278195;22;20028;-90
2021/09/07 05:43:19;;;;;;;22.20;15.25;;;11.50;99.90;;;;;;6256134;22;20437;-90
2021/09/07 05:46:09;;;;;;;22.20;15.63;;;11.70;99.90;;;;;;6274636;22;20362;-88
2021/09/07 05:48:56;;;;;;;22.17;14.68;;;11.80;99.90;;;;;;6250828;22;20019;-91
2021/09/07 05:54:51;;;;;;;21.63;15.20;;;12.20;99.90;;;;;;6258911;22;20407;-89
2021/09/07 05:57:41;;;;;;;22.95;15.05;;;12.40;99.90;;;;;;6255205;22;20079;-91
2021/09/07 06:00:30;;;;;;;18.45;14.38;;;12.50;99.90;;;;;;6257997;22;20096;-90
2021/09/07 06:03:17;;;;;;;21.92;14.57;;;12.70;99.90;;;;;;6276425;22;20107;-89
2021/09/07 06:06:04;;;;;;;18.83;13.68;;;12.90;99.90;;;;;;6276303;22;20322;-89
2021/09/07 06:08:57;;;;;;;21.33;13.32;;;12.90;99.90;;;;;;6274262;22;20038;-89
2021/09/07 06:11:46;;;;;;;21.10;14.18;;;12.90;99.90;;;;;;6260226;22;20079;-89
2021/09/07 06:14:38;;;;;;;23.83;13.98;;;12.90;99.90;;;;;;6259683;22;20101;-90
2021/09/07 06:17:26;;;;;;;16.60;13.73;;;13.00;99.90;;;;;;6277120;22;20101;-87
2021/09/07 06:20:13;;;;;;;18.83;13.70;;;13.00;99.90;;;;;;6258847;22;20019;-89
2021/09/07 06:23:00;;;;;;;20.58;13.85;;;13.10;99.90;;;;;;6239856;22;20583;-89
2021/09/07 06:25:48;;;;;;;18.70;13.45;;;13.20;99.90;;;;;;6283532;22;20403;-89
2021/09/07 06:28:38;;;;;;;19.27;13.77;;;13.30;99.90;;;;;;6281560;22;20090;-88
2021/09/07 06:31:27;;;;;;;22.30;14.00;;;13.40;99.90;;;;;;6276430;22;20114;-88
2021/09/07 06:34:16;;;;;;;20.83;13.88;;;13.40;99.90;;;;;;6278319;22;20125;-90
2021/09/07 06:37:03;;;;;;;20.77;15.05;;;13.50;99.90;;;;;;6239871;22;20047;-91
2021/09/07 06:39:51;;;;;;;20.20;14.23;;;13.70;99.90;;;;;;6278671;22;20059;-90
2021/09/07 06:42:38;;;;;;;18.23;12.85;;;13.90;99.90;;;;;;6253377;22;20415;-90
2021/09/07 06:45:26;;;;;;;15.73;12.98;;;14.10;99.90;;;;;;6276170;22;20407;-91
2021/09/07 06:48:13;;;;;;;18.42;12.70;;;14.60;99.90;;;;;;6254795;22;20028;-93
2021/09/07 06:51:03;;;;;;;16.40;11.85;;;15.20;99.90;;;;;;6253150;22;20066;-93
2021/09/07 06:53:52;;;;;;;20.50;12.07;;;15.80;99.90;;;;;;6254543;22;20099;-90
2021/09/07 06:56:40;;;;;;;16.30;11.93;;;16.30;99.90;;;;;;6275883;22;20627;-92
2021/09/07 06:59:30;;;;;;;16.52;11.20;;;16.80;99.90;;;;;;6252820;22;20032;-89
2021/09/07 07:02:21;;;;;;;13.93;11.43;;;17.20;99.90;;;;;;6253508;22;20020;-92
2021/09/07 07:05:09;;;;;;;17.75;11.32;;;17.50;99.90;;;;;;6273616;22;20019;-87
2021/09/07 07:07:56;;;;;;;15.95;10.88;;;17.80;99.90;;;;;;6250407;22;20323;-89
2021/09/07 07:10:43;;;;;;;14.13;10.77;;;18.10;99.90;;;;;;6275305;22;20038;-87
2021/09/07 07:13:34;;;;;;;14.68;10.00;;;18.40;99.90;;;;;;6211109;22;20423;-87
2021/09/07 07:16:21;;;;;;;15.05;9.60;;;18.60;99.90;;;;;;6281167;22;20035;-88
2021/09/07 07:19:13;;;;;;;12.45;10.18;;;18.80;99.90;;;;;;6254490;22;20031;-89
2021/09/07 07:22:03;;;;;;;15.93;10.90;;;19.00;99.90;;;;;;6250143;22;20462;-88
2021/09/07 07:24:51;;;;;;;16.75;11.18;;;19.00;99.90;;;;;;6252359;22;20442;-92
2021/09/07 07:27:43;;;;;;;12.55;10.32;;;18.90;99.90;;;;;;6274781;22;20268;-91
2021/09/07 07:30:33;;;;;;;13.88;10.38;;;18.90;99.90;;;;;;6250589;22;20050;-90
2021/09/07 07:33:23;;;;;;;14.35;10.18;;;18.80;99.90;;;;;;6272445;22;20391;-90
2021/09/07 07:36:10;;;;;;;15.75;10.90;;;19.00;99.90;;;;;;6230801;22;20085;-90
2021/09/07 07:38:57;;;;;;;12.57;9.73;;;19.30;99.90;;;;;;6250993;22;20028;-89
2021/09/07 07:41:44;;;;;;;13.45;10.00;;;19.50;99.90;;;;;;6251674;22;20142;-89
2021/09/07 07:44:32;;;;;;;11.90;10.20;;;20.00;99.90;;;;;;6273326;22;20411;-89
2021/09/07 07:47:19;;;;;;;13.32;9.70;;;20.20;99.90;;;;;;6215513;22;20432;-91
2021/09/07 07:50:06;;;;;;;12.35;9.98;;;20.60;99.90;;;;;;6278581;22;20055;-89
2021/09/07 07:52:54;;;;;;;17.67;10.07;;;21.00;99.90;;;;;;6237951;22;20046;-89
2021/09/07 07:55:42;;;;;;;15.45;8.75;;;21.20;99.90;;;;;;6231128;22;20031;-87
2021/09/07 07:58:44;;;;;;;11.77;9.33;;;21.40;99.90;;;;;;6275397;22;20023;-92
2021/09/07 08:01:34;;;;;;;17.13;9.88;;;21.70;99.90;;;;;;6250128;22;20034;-89
2021/09/07 08:04:22;;;;;;;15.10;9.68;;;22.00;98.40;;;;;;6273149;22;20110;-92
2021/09/07 08:07:14;;;;;;;14.63;9.95;;;22.20;97.30;;;;;;6273693;22;20027;-89
2021/09/07 08:10:02;;;;;;;12.23;8.82;;;22.40;94.50;;;;;;6275411;22;20477;-91
2021/09/07 08:12:50;;;;;;;12.48;8.38;;;23.10;89.90;;;;;;6274436;22;20055;-89
2021/09/07 08:15:37;;;;;;;12.98;7.65;;;24.00;90.10;;;;;;6271605;22;20042;-88
2021/09/07 08:18:24;;;;;;;8.77;7.68;;;25.20;85.00;;;;;;6274691;22;20028;-88
2021/09/07 08:21:23;;;;;;;11.45;8.43;;;25.70;71.10;;;;;;6250206;22;20086;-89
2021/09/07 08:24:10;;;;;;;10.38;7.72;;;25.80;64.70;;;;;;6276171;22;20039;-90
2021/09/07 08:26:59;;;;;;;12.95;8.73;;;25.40;71.20;;;;;;6273757;22;20020;-90
2021/09/07 08:29:46;;;;;;;11.25;8.00;;;25.90;69.60;;;;;;6277219;22;20122;-89
2021/09/07 08:32:33;;;;;;;12.13;8.55;;;26.10;67.40;;;;;;6253019;22;20086;-90
2021/09/07 08:35:21;;;;;;;9.88;8.75;;;26.10;67.90;;;;;;6244112;23;20134;-92
2021/09/07 08:38:09;;;;;;;13.05;8.70;;;25.60;68.70;;;;;;6247066;23;20043;-92
2021/09/07 08:41:01;;;;;;;13.10;8.77;;;25.20;68.80;;;;;;6247183;23;20025;-94
2021/09/07 08:43:53;;;;;;;12.80;9.48;;;25.00;67.20;;;;;;6204157;23;20097;-92
2021/09/07 08:46:46;;;;;;;10.80;8.57;;;25.60;69.20;;;;;;6226951;23;20024;-91
2021/09/07 08:49:33;;;;;;;9.40;8.23;;;26.70;64.80;;;;;;6228303;23;20285;-93
2021/09/07 08:52:22;;;;;;;10.70;8.63;;;27.60;61.40;;;;;;6248889;23;20028;-93
2021/09/07 08:55:10;;;;;;;12.73;8.63;;;27.90;61.20;;;;;;6244939;23;20024;-88
2021/09/07 08:57:57;;;;;;;13.65;8.45;;;28.00;58.50;;;;;;6222386;23;20032;-88
2021/09/07 09:00:48;;;;;;;8.07;7.28;;;28.30;55.70;;;;;;6246909;23;20027;-91
2021/09/07 09:03:38;;;;;;;7.88;6.70;;;28.50;55.30;;;;;;6223908;23;20020;-90
2021/09/07 09:06:26;;;;;;;8.23;7.38;;;29.40;53.90;;;;;;6224134;23;20024;-90
2021/09/07 09:09:14;;;;;;;8.55;6.60;;;29.90;50.60;;;;;;6245150;23;20091;-91
2021/09/07 09:12:01;;;;;;;9.90;7.65;;;30.40;52.20;;;;;;6246168;23;20028;-90
2021/09/07 09:14:49;;;;;;;9.90;7.15;;;30.30;50.50;;;;;;6246589;23;20052;-93
2021/09/07 09:17:38;;;;;;;8.23;7.30;;;29.70;53.30;;;;;;6246082;23;20028;-91
2021/09/07 09:20:25;;;;;;;10.35;7.32;;;29.00;54.10;;;;;;6248031;23;20327;-90
2021/09/07 09:23:12;;;;;;;9.32;7.68;;;29.20;53.40;;;;;;6227519;23;20027;-90
2021/09/07 09:25:59;;;;;;;11.02;6.95;;;29.40;51.40;;;;;;6245262;23;20117;-90
2021/09/07 09:28:57;;;;;;;8.90;7.25;;;29.50;50.60;;;;;;6203870;23;20103;-93
2021/09/07 09:31:55;;;;;;;7.60;6.80;;;29.90;51.20;;;;;;6243597;23;20086;-90
2021/09/07 09:34:42;;;;;;;8.68;7.28;;;30.00;49.60;;;;;;6271612;22;20051;-90
2021/09/07 09:37:30;;;;;;;10.05;7.40;;;30.40;48.50;;;;;;6291893;22;20032;-89
2021/09/07 09:40:21;;;;;;;7.57;6.38;;;30.60;45.70;;;;;;6288565;22;20141;-90
2021/09/07 09:43:37;;;;;;;7.97;6.73;;;30.20;47.50;;;;;;6298427;22;20089;-88
2021/09/07 09:46:26;;;;;;;8.85;7.63;;;30.30;46.10;;;;;;6299204;22;20242;-91
2021/09/07 09:49:17;;;;;;;7.55;6.60;;;30.60;48.40;;;;;;6277700;22;20039;-88
2021/09/07 09:52:08;;;;;;;7.72;6.90;;;30.90;46.10;;;;;;6301185;22;20281;-92
2021/09/07 09:55:01;;;;;;;9.80;6.45;;;31.30;45.60;;;;;;6301704;22;20031;-91
2021/09/07 09:57:52;;;;;;;7.80;7.00;;;31.30;46.40;;;;;;6280651;22;20007;-92
2021/09/07 10:00:42;;;;;;;9.63;7.47;;;30.90;45.30;;;;;;6301598;22;20012;-90
2021/09/07 10:03:31;;;;;;;8.02;7.20;;;30.40;47.70;;;;;;6295982;22;20043;-91
2021/09/07 10:06:20;;;;;;;10.38;7.70;;;30.50;47.40;;;;;;6292628;22;20034;-93
2021/09/07 10:09:08;;;;;;;7.20;6.18;;;31.50;45.70;;;;;;6266631;22;20072;-93
2021/09/07 10:12:09;;;;;;;9.38;6.97;;;31.80;45.40;;;;;;6277131;22;20102;-90
2021/09/07 10:15:09;;;;;;;7.57;6.30;;;32.60;40.70;;;;;;6261007;22;20027;-90
2021/09/07 10:24:52;;;;;;;8.70;6.20;;;32.30;41.60;;;;;;6283507;22;20103;-90
2021/09/07 10:28:05;;;;;;;7.10;6.20;;;31.60;44.10;;;;;;6274680;22;20123;-90
2021/09/07 10:31:02;;;;;;;8.00;6.43;;;32.00;42.30;;;;;;6272461;22;20030;-89
2021/09/07 10:34:01;;;;;;;8.35;6.65;;;32.20;42.20;;;;;;6274313;22;20123;-88
2021/09/07 10:37:04;;;;;;;7.18;6.32;;;32.30;43.10;;;;;;6274909;22;20442;-91
2021/09/07 10:39:51;;;;;;;8.55;6.10;;;32.50;44.00;;;;;;6275200;22;20039;-88
2021/09/07 10:42:47;;;;;;;8.40;6.55;;;31.10;43.00;;;;;;6274506;22;20114;-91
2021/09/07 10:45:40;;;;;;;7.20;5.20;;;30.60;45.60;;;;;;6276254;22;20078;-93
2021/09/07 10:48:30;;;;;;;8.95;6.40;;;30.70;47.40;;;;;;6278065;22;20024;-93
2021/09/07 10:51:18;;;;;;;10.02;6.25;;;31.70;44.60;;;;;;6252687;22;20085;-90
2021/09/07 10:54:09;;;;;;;14.93;9.30;;;31.60;43.60;;;;;;6274746;22;20331;-90
2021/09/07 10:56:58;;;;;;;7.85;6.68;;;32.20;43.70;;;;;;6232057;22;20075;-88
2021/09/07 10:59:54;;;;;;;19.98;18.13;;;32.00;43.50;;;;;;6230391;22;20378;-90
2021/09/07 11:02:42;;;;;;;7.55;6.40;;;31.90;43.00;;;;;;6253398;22;20027;-91
2021/09/07 11:05:44;;;;;;;7.65;6.18;;;32.10;44.10;;;;;;6279100;22;20099;-89
2021/09/07 11:08:36;;;;;;;10.70;6.63;;;32.70;42.40;;;;;;6274520;22;20045;-91
2021/09/07 11:11:27;;;;;;;7.55;6.75;;;32.30;42.40;;;;;;6296875;22;20038;-91
2021/09/07 11:14:16;;;;;;;7.78;6.07;;;32.50;41.40;;;;;;6293311;22;20081;-91
2021/09/07 11:17:03;;;;;;;8.27;6.20;;;33.10;40.70;;;;;;6275015;22;20295;-91
2021/09/07 11:20:03;;;;;;;8.70;6.38;;;32.90;40.70;;;;;;6285018;22;20085;-88
2021/09/07 11:22:51;;;;;;;7.10;5.95;;;33.20;40.30;;;;;;6258624;22;20400;-90
2021/09/07 11:25:41;;;;;;;8.23;6.05;;;33.10;40.20;;;;;;6277984;22;20128;-88
2021/09/07 11:28:30;;;;;;;6.43;5.70;;;32.70;39.80;;;;;;6274425;22;20046;-90
2021/09/07 11:31:17;;;;;;;8.48;6.18;;;32.50;38.90;;;;;;6276327;22;20129;-87
2021/09/07 11:34:14;;;;;;;8.98;5.90;;;32.90;40.60;;;;;;6223107;23;20505;-88
2021/09/07 11:37:19;;;;;;;9.10;5.97;;;32.70;39.50;;;;;;6243284;23;20391;-92
2021/09/07 11:40:09;;;;;;;8.70;5.90;;;32.50;38.30;;;;;;6241379;23;20082;-88
2021/09/07 11:42:56;;;;;;;7.40;5.88;;;32.30;38.90;;;;;;6241892;23;20353;-91
2021/09/07 11:45:43;;;;;;;8.82;5.75;;;33.30;36.20;;;;;;6223925;23;20162;-92
2021/09/07 11:48:31;;;;;;;6.93;6.00;;;33.90;35.10;;;;;;6225679;23;20032;-91
2021/09/07 11:51:33;;;;;;;7.32;6.05;;;33.50;37.90;;;;;;6247844;23;20024;-92
2021/09/07 11:54:25;;;;;;;;;;;33.30;38.10;;;;;;6253066;23;20359;-92
2021/09/07 11:57:23;;;;;;;11.18;5.85;;;33.50;37.60;;;;;;6208007;23;19915;-90
2021/09/07 12:00:11;;;;;;;6.63;5.93;;;33.60;37.30;;;;;;6244541;23;20047;-91
2021/09/07 12:03:46;;;;;;;7.65;5.70;;;33.50;35.30;;;;;;6232260;23;20032;-90
2021/09/07 12:06:37;;;;;;;7.88;6.57;;;33.00;35.90;;;;;;6225049;23;20297;-91
2021/09/07 12:09:30;;;;;;;6.60;5.93;;;31.90;37.10;;;;;;6247184;22;20035;-89
2021/09/07 12:12:26;;;;;;;6.25;5.65;;;32.20;38.50;;;;;;6246050;23;20024;-94
2021/09/07 12:15:17;;;;;;;7.57;6.22;;;32.50;38.90;;;;;;6247007;23;20477;-91
2021/09/07 12:18:07;;;;;;;10.77;6.28;;;32.80;37.80;;;;;;6246440;23;20028;-90
2021/09/07 12:21:15;;;;;;;6.88;5.97;;;33.70;36.80;;;;;;6206515;23;20089;-91
2021/09/07 12:24:14;;;;;;;6.72;5.95;;;34.10;35.40;;;;;;6237023;23;20024;-92
2021/09/07 12:27:24;;;;;;;6.78;6.07;;;33.90;35.00;;;;;;6256414;23;20024;-91
2021/09/07 12:30:40;;;;;;;6.35;5.75;;;34.20;34.70;;;;;;6223103;23;20020;-91
2021/09/07 12:33:27;;;;;;;6.85;5.97;;;33.20;35.60;;;;;;6244590;22;20079;-91
2021/09/07 12:36:21;;;;;;;6.95;5.80;;;32.40;37.70;;;;;;6288530;22;20065;-93
2021/09/07 12:39:09;;;;;;;6.95;5.82;;;33.00;35.20;;;;;;6265627;22;20094;-93
2021/09/07 12:41:58;;;;;;;6.47;5.75;;;33.20;36.30;;;;;;6280006;22;20063;-92
2021/09/07 12:45:27;;;;;;;6.45;5.55;;;33.50;35.60;;;;;;6232156;22;20043;-91
2021/09/07 13:04:25;;;;;;;;;;;;;;;;;;;;;
2021/09/07 13:07:14;;;;;;;7.65;5.32;;;32.10;37.00;;;;;;5965196;24;20152;-90
2021/09/07 13:10:18;;;;;;;8.15;5.72;;;32.50;36.10;;;;;;5929905;24;20036;-89
2021/09/07 13:13:07;;;;;;;7.30;5.80;;;32.30;35.30;;;;;;5963470;23;20032;-92
2021/09/07 13:16:03;;;;;;;7.72;5.75;;;32.50;38.50;;;;;;6072837;23;20451;-92
2021/09/07 13:19:55;;;;;;;6.68;5.63;;;32.60;36.10;;;;;;6097035;23;20330;-92
2021/09/07 13:22:56;;;;;;;7.47;5.43;;;33.80;35.70;;;;;;6022946;23;20105;-89
2021/09/07 13:25:47;;;;;;;10.00;5.75;;;34.00;34.60;;;;;;6096698;23;20030;-91
2021/09/07 13:29:54;;;;;;;8.68;6.30;;;33.40;35.70;;;;;;6067261;23;20087;-91
2021/09/07 13:33:02;;;;;;;7.93;5.97;;;32.60;37.10;;;;;;5966333;23;20098;-92
2021/09/07 13:36:12;;;;;;;7.38;6.03;;;31.90;37.90;;;;;;5981833;23;20096;-91
2021/09/07 13:39:03;;;;;;;14.35;6.80;;;31.10;39.70;;;;;;6037137;23;20148;-90
2021/09/07 13:41:57;;;;;;;7.78;6.90;;;30.60;40.30;;;;;;6094784;23;20023;-91
2021/09/07 13:45:05;;;;;;;7.78;5.80;;;30.80;42.00;;;;;;5978586;24;20040;-90
2021/09/07 13:48:38;;;;;;;6.85;6.18;;;31.70;39.00;;;;;;6043754;23;20407;-93
2021/09/07 13:51:45;;;;;;;;;;;;;;;;;;;;;
2021/09/07 13:55:50;;;;;;;8.73;6.07;;;33.00;37.70;;;;;;6031279;23;20041;-94
2021/09/07 13:59:15;;;;;;;8.73;5.97;;;33.10;35.30;;;;;;5944778;23;20027;-93
2021/09/07 14:03:41;;;;;;;7.40;6.47;;;32.60;37.80;;;;;;6084704;23;20058;-93
2021/09/07 14:06:46;;;;;;;6.80;6.10;;;32.50;37.00;;;;;;6108133;23;20040;-92
2021/09/07 14:09:39;;;;;;;8.73;6.53;;;32.60;38.00;;;;;;6122411;23;20025;-91
2021/09/07 14:16:39;;;;;;;7.65;6.28;;;32.80;37.40;;;;;;6123719;23;20026;-90
2021/09/07 14:20:22;;;;;;;10.63;6.72;;;31.70;38.50;;;;;;6109878;23;20057;-91
2021/09/07 14:23:42;;;;;;;8.75;6.43;;;30.70;41.30;;;;;;6203780;22;20027;-93
2021/09/07 14:26:41;;;;;;;8.15;6.80;;;30.40;41.20;;;;;;6279299;22;20423;-93
2021/09/07 14:29:48;;;;;;;13.27;6.32;;;30.60;41.30;;;;;;6255628;22;20477;-89
2021/09/07 14:32:38;;;;;;;8.40;6.22;;;30.60;40.60;;;;;;6250011;22;20084;-90
2021/09/07 14:35:28;;;;;;;9.38;6.32;;;30.20;40.90;;;;;;6277042;22;20122;-89
2021/09/07 14:38:18;;;;;;;9.63;6.55;;;30.20;42.10;;;;;;6272519;22;20460;-90
2021/09/07 14:41:05;;;;;;;11.45;5.93;;;30.40;41.40;;;;;;6251008;22;20051;-90
2021/09/07 14:43:55;;;;;;;7.32;5.72;;;30.30;40.80;;;;;;6275037;22;20028;-91
2021/09/07 14:50:15;;;;;;;7.25;6.00;;;30.20;40.20;;;;;;6274751;22;20024;-91
2021/09/07 14:53:06;;;;;;;6.70;6.00;;;29.50;41.00;;;;;;6282085;22;20023;-92
2021/09/07 14:55:54;;;;;;;8.20;6.15;;;28.80;41.40;;;;;;6264087;22;20070;-90
2021/09/07 14:58:48;;;;;;;7.60;5.80;;;28.90;41.80;;;;;;6235281;22;20023;-92
2021/09/07 15:02:03;;;;;;;;;;;;;;;;;;;;;
2021/09/07 15:05:36;;;;;;;;;;;;;;;;;;;;;
2021/09/07 15:09:01;;;;;;;6.25;5.65;;;29.90;40.30;;;;;;6121525;23;20026;-90
2021/09/07 15:12:11;;;;;;;7.03;6.00;;;30.30;39.30;;;;;;5965485;24;20039;-89
2021/09/07 15:15:03;;;;;;;5.57;5.07;;;29.90;39.50;;;;;;5961860;24;20032;-91
2021/09/07 15:17:50;;;;;;;6.65;5.80;;;29.50;40.70;;;;;;5942610;24;20052;-88
2021/09/07 15:20:42;;;;;;;7.32;5.43;;;29.10;41.00;;;;;;5980099;24;20039;-90
2021/09/07 15:23:29;;;;;;;9.27;6.15;;;28.90;40.80;;;;;;5978975;24;20148;-91
2021/09/07 15:26:21;;;;;;;8.45;6.00;;;29.00;42.30;;;;;;6044674;23;20375;-92
2021/09/07 15:29:14;;;;;;;7.38;5.90;;;28.90;41.40;;;;;;6161857;22;20027;-90
2021/09/07 15:32:10;;;;;;;8.27;6.75;;;28.70;41.70;;;;;;6274202;22;20023;-92
2021/09/07 15:35:01;;;;;;;7.65;6.00;;;28.50;42.60;;;;;;6274550;22;20103;-91
2021/09/07 15:37:48;;;;;;;9.00;6.20;;;28.50;43.20;;;;;;6275122;22;20019;-92
2021/09/07 15:40:39;;;;;;;10.88;6.65;;;28.40;42.70;;;;;;6275961;22;20122;-91
2021/09/07 15:43:32;;;;;;;11.02;6.85;;;27.90;43.70;;;;;;6255445;22;20016;-90
2021/09/07 15:46:24;;;;;;;9.27;6.35;;;27.70;45.50;;;;;;6272158;22;20074;-93
2021/09/07 15:49:43;;;;;;;12.40;5.63;;;27.90;45.30;;;;;;6258969;22;20734;-90
2021/09/07 15:52:46;;;;;;;;;;;;;;;;;;;;;
2021/09/07 15:55:51;;;;;;;7.35;6.22;;;28.60;42.80;;;;;;6275409;22;20028;-92
2021/09/07 15:58:43;;;;;;;10.73;6.50;;;28.50;43.10;;;;;;6263431;22;20032;-87
2021/09/07 16:01:33;;;;;;;9.35;6.45;;;28.00;44.80;;;;;;6284891;22;20074;-91
2021/09/07 16:04:24;;;;;;;9.98;6.28;;;27.40;46.10;;;;;;6261818;22;20023;-91
2021/09/07 16:07:13;;;;;;;16.48;6.50;;;26.70;47.00;;;;;;6286251;22;20034;-91
2021/09/07 16:10:04;;;;;;;9.88;6.40;;;26.20;49.20;;;;;;6248827;22;20011;-90
2021/09/07 16:12:52;;;;;;;10.63;6.75;;;25.70;50.80;;;;;;6283572;22;20023;-90
2021/09/07 16:15:55;;;;;;;;;;;;;;;;;;;;;
2021/09/07 16:22:24;;;;;;;10.68;6.28;;;24.90;52.80;;;;;;6192218;23;20136;-92
2021/09/07 16:25:12;;;;;;;9.63;6.38;;;24.70;53.50;;;;;;6192237;23;20088;-90
2021/09/07 16:28:13;;;;;;;7.93;6.05;;;24.40;54.40;;;;;;6183647;23;20024;-93
2021/09/07 16:34:41;;;;;;;14.18;7.13;;;23.80;56.10;;;;;;6200393;23;20029;-91
2021/09/07 16:37:33;;;;;;;8.20;6.88;;;23.50;56.70;;;;;;6168832;23;20021;-89
2021/09/07 16:40:32;;;;;;;8.00;6.90;;;23.30;57.60;;;;;;6168254;23;20033;-92
2021/09/07 16:44:18;;;;;;;;;;;;;;;;;;;;;
2021/09/07 16:47:23;;;;;;;;;;;;;;;;;;;;;
2021/09/07 16:50:37;;;;;;;8.27;6.43;;;23.00;57.80;;;;;;6184914;23;20751;-92
2021/09/07 16:53:54;;;;;;;11.73;6.88;;;22.80;58.40;;;;;;6163884;23;20029;-94
2021/09/07 16:56:56;;;;;;;8.40;6.55;;;22.60;58.80;;;;;;6172068;23;20084;-93
2021/09/07 16:59:47;;;;;;;10.00;6.22;;;22.50;59.10;;;;;;6209622;23;20086;-94
2021/09/07 17:02:54;;;;;;;11.40;7.35;;;22.40;59.70;;;;;;6225720;23;20422;-91
2021/09/07 17:06:33;;;;;;;9.48;6.95;;;22.20;60.20;;;;;;6246768;23;20051;-91
2021/09/07 17:10:00;;;;;;;;;;;;;;;;;;;;;
2021/09/07 17:13:22;;;;;;;9.57;7.43;;;21.90;61.10;;;;;;6155509;23;20025;-94
2021/09/07 17:17:12;;;;;;;;;;;;;;;;;;;;;
2021/09/07 17:20:42;;;;;;;;;;;;;;;;;;;;;
2021/09/07 17:24:25;;;;;;;;;;;;;;;;;;;;;
2021/09/07 17:28:21;;;;;;;;;;;;;;;;;;;;;
2021/09/07 17:38:41;;;;;;;12.48;7.70;;;20.60;69.80;;;;;;5833014;24;20037;-91
2021/09/07 17:42:33;;;;;;;;;;;;;;;;;;;;;
2021/09/07 17:46:36;;;;;;;12.45;8.10;;;20.20;72.60;;;;;;5823183;24;20037;-93
2021/09/07 17:53:20;;;;;;;11.45;7.57;;;19.70;76.50;;;;;;5913236;24;20168;-92
2021/09/07 17:56:31;;;;;;;9.60;7.80;;;19.50;78.60;;;;;;5970979;23;20110;-92
2021/09/07 17:59:30;;;;;;;12.68;8.68;;;19.30;81.70;;;;;;6033801;23;20098;-91
2021/09/07 18:02:44;;;;;;;17.08;9.45;;;19.00;83.70;;;;;;6047554;23;20047;-94
2021/09/07 18:05:49;;;;;;;15.23;9.02;;;18.80;84.30;;;;;;6048668;23;20324;-90
2021/09/07 18:09:15;;;;;;;12.57;8.93;;;18.60;87.60;;;;;;6170195;23;20020;-93
2021/09/07 18:12:34;;;;;;;;;;;;;;;;;;;;;
2021/09/07 18:15:24;;;;;;;14.43;9.23;;;18.30;92.40;;;;;;6255274;22;20482;-92
2021/09/07 18:18:18;;;;;;;13.13;8.75;;;18.10;93.70;;;;;;6251182;23;20086;-92
2021/09/07 18:21:07;;;;;;;14.82;9.00;;;17.90;95.20;;;;;;6265178;23;20028;-91
2021/09/07 18:24:08;;;;;;;;;;;;;;;;;;;;;
2021/09/07 18:27:02;;;;;;;13.60;8.73;;;17.70;99.20;;;;;;6256062;23;20362;-90
2021/09/07 18:29:55;;;;;;;12.70;8.80;;;17.60;99.90;;;;;;6234198;23;20028;-92
2021/09/07 18:37:25;;;;;;;;;;;;;;;;;;;;;
2021/09/07 18:40:30;;;;;;;14.30;9.25;;;17.40;99.90;;;;;;6023016;23;20055;-92
2021/09/07 18:44:32;;;;;;;13.45;8.63;;;17.40;99.90;;;;;;5983538;23;20047;-94
2021/09/07 18:48:57;;;;;;;;;;;;;;;;;;;;;
2021/09/07 18:52:30;;;;;;;11.75;8.82;;;17.20;99.90;;;;;;6010940;23;20176;-91
2021/09/07 18:55:45;;;;;;;;;;;;;;;;;;;;;
2021/09/07 18:58:41;;;;;;;13.88;8.63;;;17.00;99.90;;;;;;6038463;23;20138;-91
2021/09/07 19:05:44;;;;;;;12.43;8.93;;;16.90;99.90;;;;;;5955912;24;20048;-93
2021/09/07 19:09:06;;;;;;;11.05;9.18;;;16.70;99.90;;;;;;5908729;24;20065;-91
2021/09/07 19:16:31;;;;;;;;;;;;;;;;;;;;;
2021/09/07 19:24:43;;;;;;;15.20;10.25;;;16.40;99.90;;;;;;5971521;23;20059;-91
2021/09/07 19:28:19;;;;;;;14.95;9.93;;;16.30;99.90;;;;;;6156382;23;20030;-91
2021/09/07 19:32:02;;;;;;;;;;;;;;;;;;;;;
2021/09/07 19:43:03;;;;;;;18.75;11.38;;;15.80;99.90;;;;;;6020959;23;20070;-90
2021/09/07 19:45:51;;;;;;;16.05;11.02;;;15.70;99.90;;;;;;6049937;23;20118;-92
2021/09/07 19:48:40;;;;;;;15.05;11.25;;;15.70;99.90;;;;;;6060372;23;20027;-91
2021/09/07 19:51:33;;;;;;;14.05;11.20;;;15.70;99.90;;;;;;6058881;23;20027;-91
2021/09/07 19:54:23;;;;;;;15.95;11.15;;;15.70;99.90;;;;;;6157368;23;20016;-92
2021/09/07 19:57:21;;;;;;;14.23;10.77;;;15.70;99.90;;;;;;6176783;23;20026;-92
2021/09/07 20:00:22;;;;;;;15.40;10.90;;;15.70;99.90;;;;;;6173769;23;20032;-92
2021/09/07 20:03:26;;;;;;;14.82;11.25;;;15.70;99.90;;;;;;6232603;23;20012;-92
2021/09/07 20:06:31;;;;;;;14.55;10.35;;;15.70;99.90;;;;;;6225295;23;20040;-91
2021/09/07 20:09:32;;;;;;;17.48;11.65;;;15.60;99.90;;;;;;6167502;23;20030;-92
2021/09/07 20:12:41;;;;;;;17.95;12.07;;;15.60;99.90;;;;;;6165626;23;20065;-93
2021/09/07 20:15:58;;;;;;;20.05;11.43;;;15.60;99.90;;;;;;6153030;23;20033;-93
2021/09/07 20:19:16;;;;;;;21.08;14.77;;;15.60;99.90;;;;;;6155528;23;20028;-91
2021/09/07 20:22:07;;;;;;;20.05;13.73;;;15.50;99.90;;;;;;6174960;23;20021;-91
2021/09/07 20:24:58;;;;;;;21.10;13.38;;;15.40;99.90;;;;;;6173862;23;20025;-91
2021/09/07 20:27:55;;;;;;;18.10;13.50;;;15.40;99.90;;;;;;6161079;23;20021;-92
2021/09/07 20:35:02;;;;;;;;;;;;;;;;;;;;;
2021/09/07 20:38:01;;;;;;;;;;;;;;;;;;;;;
2021/09/07 20:41:58;;;;;;;;;;;;;;;;;;;;;
2021/09/07 20:45:15;;;;;;;18.70;12.93;;;15.00;99.90;;;;;;6129559;23;20098;-91
2021/09/07 20:48:03;;;;;;;17.98;12.55;;;14.90;99.90;;;;;;6126131;23;20030;-91
2021/09/07 20:50:51;;;;;;;18.35;12.80;;;14.90;99.90;;;;;;6104429;23;20025;-91
2021/09/07 20:53:40;;;;;;;19.23;12.35;;;14.90;99.90;;;;;;6142181;23;20088;-90
2021/09/07 20:56:28;;;;;;;20.60;13.35;;;14.90;99.90;;;;;;6105137;23;20026;-91
2021/09/07 20:59:15;;;;;;;17.30;12.43;;;14.90;99.90;;;;;;6103574;23;20050;-91
2021/09/07 21:02:02;;;;;;;16.67;12.95;;;14.80;99.90;;;;;;6103459;23;20037;-90
2021/09/07 21:04:52;;;;;;;18.80;13.32;;;14.70;99.90;;;;;;6131422;23;20025;-89
2021/09/07 21:07:40;;;;;;;18.25;13.82;;;14.70;99.90;;;;;;6214056;23;20031;-91
2021/09/07 21:10:27;;;;;;;17.92;12.80;;;14.60;99.90;;;;;;6212942;23;20035;-89
2021/09/07 21:13:14;;;;;;;17.60;12.70;;;14.60;99.90;;;;;;6216125;23;20098;-90
2021/09/07 21:16:01;;;;;;;18.65;14.02;;;14.50;99.90;;;;;;6212438;23;20103;-92
2021/09/07 21:18:49;;;;;;;18.88;13.10;;;14.40;99.90;;;;;;6214858;23;20032;-89
2021/09/07 21:21:36;;;;;;;17.02;12.80;;;14.40;99.90;;;;;;6214595;23;20028;-90
2021/09/07 21:24:24;;;;;;;17.83;12.75;;;14.40;99.90;;;;;;6214597;23;20025;-92
2021/09/07 21:27:11;;;;;;;17.40;13.93;;;14.40;99.90;;;;;;6193832;23;20036;-91
2021/09/07 21:29:59;;;;;;;17.73;13.63;;;14.30;99.90;;;;;;6214154;23;20025;-92
2021/09/07 21:32:47;;;;;;;20.73;13.45;;;14.30;99.90;;;;;;6192570;23;20059;-91
2021/09/07 21:35:34;;;;;;;18.45;13.15;;;14.20;99.90;;;;;;6194670;23;20032;-91
2021/09/07 21:38:25;;;;;;;18.85;13.25;;;14.20;99.90;;;;;;6182932;23;20332;-89
2021/09/07 21:41:12;;;;;;;18.35;12.82;;;14.10;99.90;;;;;;6223660;23;20024;-90
2021/09/07 21:44:00;;;;;;;20.90;14.15;;;14.10;99.90;;;;;;6201162;23;20047;-91
2021/09/07 21:46:50;;;;;;;15.88;12.82;;;14.10;99.90;;;;;;6194762;23;20021;-91
2021/09/07 21:49:40;;;;;;;18.75;13.52;;;14.00;99.90;;;;;;6213910;23;20031;-93
2021/09/07 21:52:27;;;;;;;16.13;12.63;;;14.00;99.90;;;;;;6198777;23;20039;-92
2021/09/07 21:55:15;;;;;;;19.02;14.32;;;13.90;99.90;;;;;;6193715;23;20028;-92